UAL3251 KORD-KEWR
Flight info
| Callsign | UAL3251 |
|---|---|
| Flight time | 1h 36m |
| Altitude | 37000 |
| Route | DCT DUFEE DCT ELX DCT HAAKK DCT DOXXY DCT SOSIC DCT KEEHO J584 SLT FQM3 |
| Aircraft | B738/M-SDE2E3FGHIRWXY/LB1 |
Departure
| Time | 2026-04-26 18:28 |
|---|---|
| Airport | Chicago O'Hare International Airport (KORD) |
Arrival
| Time | 2026-04-26 20:04 |
|---|---|
| Airport | Newark Liberty International Airport (KEWR) |
| Time | Latitude | Longitude | Altitude | Speed | Heading |
|---|---|---|---|---|---|
| 2026-04-26 17:56 | 41.97834 | -87.90742 | 670 ft | 0 kts | 101° |
| 2026-04-26 18:16 | 41.97836 | -87.90784 | 670 ft | 3 kts | 78° |
| 2026-04-26 18:16 | 41.97828 | -87.90812 | 669 ft | 3 kts | 53° |
| 2026-04-26 18:17 | 41.97812 | -87.90833 | 668 ft | 3 kts | 25° |
| 2026-04-26 18:17 | 41.97799 | -87.90839 | 668 ft | 0 kts | 9° |
| 2026-04-26 18:21 | 41.97807 | -87.90838 | 667 ft | 4 kts | 9° |
| 2026-04-26 18:21 | 41.97857 | -87.90826 | 670 ft | 9 kts | 10° |
| 2026-04-26 18:21 | 41.97916 | -87.90812 | 670 ft | 9 kts | 9° |
| 2026-04-26 18:21 | 41.97982 | -87.90797 | 670 ft | 13 kts | 9° |
| 2026-04-26 18:22 | 41.98077 | -87.90777 | 669 ft | 14 kts | 5° |
| 2026-04-26 18:22 | 41.98172 | -87.90786 | 669 ft | 13 kts | 353° |
| 2026-04-26 18:22 | 41.98237 | -87.90795 | 669 ft | 9 kts | 353° |
| 2026-04-26 18:22 | 41.98285 | -87.90837 | 668 ft | 9 kts | 294° |
| 2026-04-26 18:23 | 41.98290 | -87.90927 | 668 ft | 14 kts | 270° |
| 2026-04-26 18:23 | 41.98290 | -87.91093 | 668 ft | 19 kts | 269° |
| 2026-04-26 18:23 | 41.98290 | -87.91268 | 669 ft | 18 kts | 270° |
| 2026-04-26 18:23 | 41.98290 | -87.91437 | 670 ft | 18 kts | 270° |
| 2026-04-26 18:24 | 41.98289 | -87.91600 | 669 ft | 17 kts | 269° |
| 2026-04-26 18:24 | 41.98288 | -87.91758 | 669 ft | 17 kts | 270° |
| 2026-04-26 18:24 | 41.98288 | -87.91864 | 669 ft | 20 kts | 270° |
| 2026-04-26 18:24 | 41.98286 | -87.92053 | 668 ft | 20 kts | 269° |
| 2026-04-26 18:25 | 41.98283 | -87.92240 | 668 ft | 20 kts | 268° |
| 2026-04-26 18:25 | 41.98278 | -87.92421 | 668 ft | 19 kts | 269° |
| 2026-04-26 18:25 | 41.98279 | -87.92596 | 668 ft | 18 kts | 270° |
| 2026-04-26 18:25 | 41.98279 | -87.92766 | 669 ft | 18 kts | 270° |
| 2026-04-26 18:26 | 41.98279 | -87.92908 | 670 ft | 14 kts | 270° |
| 2026-04-26 18:26 | 41.98280 | -87.93015 | 670 ft | 10 kts | 270° |
| 2026-04-26 18:26 | 41.98282 | -87.93095 | 670 ft | 3 kts | 283° |
| 2026-04-26 18:26 | 41.98287 | -87.93110 | 668 ft | 4 kts | 297° |
| 2026-04-26 18:27 | 41.98318 | -87.93139 | 671 ft | 6 kts | 345° |
| 2026-04-26 18:27 | 41.98356 | -87.93140 | 671 ft | 6 kts | 5° |
| 2026-04-26 18:27 | 41.98385 | -87.93110 | 671 ft | 6 kts | 63° |
| 2026-04-26 18:27 | 41.98390 | -87.93020 | 671 ft | 28 kts | 89° |
| 2026-04-26 18:28 | 41.98390 | -87.92335 | 666 ft | 118 kts | 90° |
| 2026-04-26 18:28 | 41.98384 | -87.90962 | 1041 ft | 160 kts | 90° |
| 2026-04-26 18:28 | 41.98383 | -87.89418 | 2150 ft | 172 kts | 91° |
| 2026-04-26 18:28 | 41.98420 | -87.87716 | 2922 ft | 185 kts | 89° |
| 2026-04-26 18:29 | 41.98494 | -87.85948 | 3702 ft | 193 kts | 89° |
| 2026-04-26 18:29 | 41.98586 | -87.84107 | 4373 ft | 202 kts | 89° |
| 2026-04-26 18:29 | 41.98698 | -87.82164 | 4937 ft | 218 kts | 88° |
| 2026-04-26 18:29 | 41.98813 | -87.79974 | 5104 ft | 248 kts | 89° |
| 2026-04-26 18:30 | 41.99098 | -87.77601 | 5687 ft | 265 kts | 81° |
| 2026-04-26 18:30 | 41.99515 | -87.75143 | 6444 ft | 273 kts | 80° |
| 2026-04-26 18:30 | 41.99967 | -87.72610 | 7177 ft | 281 kts | 79° |
| 2026-04-26 18:30 | 42.00423 | -87.70066 | 8096 ft | 282 kts | 79° |
| 2026-04-26 18:31 | 42.00882 | -87.67473 | 8897 ft | 287 kts | 79° |
| 2026-04-26 18:31 | 42.01344 | -87.64834 | 9701 ft | 293 kts | 79° |
| 2026-04-26 18:31 | 42.01809 | -87.62152 | 10481 ft | 297 kts | 80° |
| 2026-04-26 18:31 | 42.02279 | -87.59426 | 11218 ft | 301 kts | 80° |
| 2026-04-26 18:32 | 42.02757 | -87.56625 | 11685 ft | 318 kts | 80° |
| 2026-04-26 18:32 | 42.03268 | -87.53610 | 11952 ft | 339 kts | 80° |
| 2026-04-26 18:32 | 42.03799 | -87.50481 | 12579 ft | 347 kts | 80° |
| 2026-04-26 18:32 | 42.04340 | -87.47301 | 13350 ft | 350 kts | 79° |
| 2026-04-26 18:33 | 42.04878 | -87.44127 | 14080 ft | 355 kts | 80° |
| 2026-04-26 18:33 | 42.05429 | -87.40870 | 14733 ft | 359 kts | 79° |
| 2026-04-26 18:33 | 42.05985 | -87.37572 | 15381 ft | 364 kts | 79° |
| 2026-04-26 18:33 | 42.06547 | -87.34228 | 16035 ft | 368 kts | 79° |
| 2026-04-26 18:34 | 42.07115 | -87.30844 | 16677 ft | 373 kts | 79° |
| 2026-04-26 18:34 | 42.07690 | -87.27412 | 17315 ft | 378 kts | 79° |
| 2026-04-26 18:34 | 42.08270 | -87.23940 | 17969 ft | 382 kts | 79° |
| 2026-04-26 18:34 | 42.08855 | -87.20430 | 18583 ft | 387 kts | 79° |
| 2026-04-26 18:35 | 42.09448 | -87.16871 | 19138 ft | 390 kts | 79° |
| 2026-04-26 18:35 | 42.10043 | -87.13292 | 19723 ft | 393 kts | 78° |
| 2026-04-26 18:35 | 42.10642 | -87.09679 | 20295 ft | 397 kts | 78° |
| 2026-04-26 18:35 | 42.11211 | -87.06022 | 20844 ft | 400 kts | 82° |
| 2026-04-26 18:36 | 42.11472 | -87.02281 | 21380 ft | 403 kts | 88° |
| 2026-04-26 18:36 | 42.11607 | -86.98498 | 21921 ft | 406 kts | 89° |
| 2026-04-26 18:36 | 42.11716 | -86.94667 | 22458 ft | 410 kts | 89° |
| 2026-04-26 18:36 | 42.11825 | -86.90817 | 22970 ft | 414 kts | 88° |
| 2026-04-26 18:37 | 42.11943 | -86.86923 | 23488 ft | 417 kts | 88° |
| 2026-04-26 18:37 | 42.12069 | -86.83050 | 23930 ft | 421 kts | 88° |
| 2026-04-26 18:37 | 42.12204 | -86.79098 | 24355 ft | 424 kts | 88° |
| 2026-04-26 18:37 | 42.12344 | -86.75105 | 24656 ft | 432 kts | 87° |
| 2026-04-26 18:38 | 42.12487 | -86.71031 | 24946 ft | 438 kts | 87° |
| 2026-04-26 18:38 | 42.12631 | -86.66924 | 25389 ft | 439 kts | 87° |
| 2026-04-26 18:38 | 42.12774 | -86.62809 | 25843 ft | 441 kts | 87° |
| 2026-04-26 18:38 | 42.12916 | -86.58671 | 26242 ft | 443 kts | 87° |
| 2026-04-26 18:39 | 42.13057 | -86.54507 | 26658 ft | 445 kts | 87° |
| 2026-04-26 18:39 | 42.13197 | -86.50342 | 27146 ft | 445 kts | 87° |
| 2026-04-26 18:39 | 42.13335 | -86.46173 | 27698 ft | 444 kts | 87° |
| 2026-04-26 18:39 | 42.13471 | -86.42011 | 28036 ft | 448 kts | 87° |
| 2026-04-26 18:40 | 42.13608 | -86.37791 | 28334 ft | 452 kts | 87° |
| 2026-04-26 18:40 | 42.13744 | -86.33538 | 28687 ft | 455 kts | 87° |
| 2026-04-26 18:40 | 42.13879 | -86.29274 | 29160 ft | 455 kts | 86° |
| 2026-04-26 18:40 | 42.14011 | -86.25028 | 29713 ft | 452 kts | 86° |
| 2026-04-26 18:41 | 42.14142 | -86.20803 | 30241 ft | 451 kts | 86° |
| 2026-04-26 18:41 | 42.14271 | -86.16590 | 30628 ft | 450 kts | 86° |
| 2026-04-26 18:41 | 42.14399 | -86.12370 | 30980 ft | 451 kts | 86° |
| 2026-04-26 18:41 | 42.14466 | -86.08193 | 31348 ft | 451 kts | 89° |
| 2026-04-26 18:42 | 42.14450 | -86.03967 | 31668 ft | 453 kts | 89° |
| 2026-04-26 18:42 | 42.14399 | -85.99701 | 31826 ft | 458 kts | 90° |
| 2026-04-26 18:42 | 42.14341 | -85.95385 | 32031 ft | 462 kts | 90° |
| 2026-04-26 18:42 | 42.14286 | -85.91049 | 32314 ft | 463 kts | 89° |
| 2026-04-26 18:43 | 42.14239 | -85.86718 | 32696 ft | 462 kts | 89° |
| 2026-04-26 18:43 | 42.14198 | -85.82399 | 33107 ft | 460 kts | 89° |
| 2026-04-26 18:43 | 42.14161 | -85.78094 | 33454 ft | 460 kts | 89° |
| 2026-04-26 18:43 | 42.14124 | -85.73784 | 33760 ft | 460 kts | 89° |
| 2026-04-26 18:44 | 42.14087 | -85.69474 | 34078 ft | 460 kts | 89° |
| 2026-04-26 18:44 | 42.14048 | -85.65160 | 34382 ft | 459 kts | 89° |
| 2026-04-26 18:44 | 42.14007 | -85.60856 | 34652 ft | 459 kts | 89° |
| 2026-04-26 18:44 | 42.13965 | -85.56554 | 34905 ft | 459 kts | 89° |
| 2026-04-26 18:45 | 42.13920 | -85.52249 | 35152 ft | 459 kts | 89° |
| 2026-04-26 18:45 | 42.13875 | -85.48002 | 35364 ft | 461 kts | 89° |
| 2026-04-26 18:45 | 42.13777 | -85.39263 | 35462 ft | 471 kts | 89° |
| 2026-04-26 18:46 | 42.13670 | -85.30361 | 35726 ft | 477 kts | 89° |
| 2026-04-26 18:46 | 42.13613 | -85.25893 | 36002 ft | 475 kts | 89° |
| 2026-04-26 18:46 | 42.13554 | -85.21450 | 36284 ft | 474 kts | 89° |
| 2026-04-26 18:47 | 42.13494 | -85.17011 | 36510 ft | 474 kts | 89° |
| 2026-04-26 18:47 | 42.13433 | -85.12567 | 36712 ft | 474 kts | 89° |
| 2026-04-26 18:47 | 42.13371 | -85.08126 | 36918 ft | 474 kts | 89° |
| 2026-04-26 18:47 | 42.13306 | -85.03689 | 37148 ft | 474 kts | 89° |
| 2026-04-26 18:48 | 42.13122 | -84.94777 | 37157 ft | 476 kts | 91° |
| 2026-04-26 18:48 | 42.12622 | -84.85905 | 37154 ft | 473 kts | 93° |
| 2026-04-26 18:49 | 42.12037 | -84.77097 | 37160 ft | 471 kts | 93° |
| 2026-04-26 18:49 | 42.11481 | -84.68383 | 37172 ft | 469 kts | 92° |
| 2026-04-26 18:50 | 42.10946 | -84.59646 | 37181 ft | 467 kts | 92° |
| 2026-04-26 18:50 | 42.10415 | -84.50912 | 37192 ft | 470 kts | 92° |
| 2026-04-26 18:51 | 42.09872 | -84.42041 | 37201 ft | 479 kts | 92° |
| 2026-04-26 18:51 | 42.09310 | -84.33040 | 37188 ft | 485 kts | 92° |
| 2026-04-26 18:52 | 42.08737 | -84.24016 | 37178 ft | 480 kts | 92° |
| 2026-04-26 18:52 | 42.08169 | -84.15202 | 37185 ft | 473 kts | 92° |
| 2026-04-26 18:53 | 42.07597 | -84.06378 | 37196 ft | 472 kts | 92° |
| 2026-04-26 18:53 | 42.07020 | -83.97582 | 37188 ft | 471 kts | 92° |
| 2026-04-26 18:54 | 42.06437 | -83.88796 | 37190 ft | 471 kts | 92° |
| 2026-04-26 18:54 | 42.05847 | -83.80007 | 37188 ft | 472 kts | 92° |
| 2026-04-26 18:55 | 42.05248 | -83.71208 | 37187 ft | 473 kts | 92° |
| 2026-04-26 18:55 | 42.04642 | -83.62394 | 37208 ft | 473 kts | 92° |
| 2026-04-26 18:56 | 42.04028 | -83.53559 | 37213 ft | 474 kts | 92° |
| 2026-04-26 18:56 | 42.03411 | -83.44786 | 37212 ft | 475 kts | 92° |
| 2026-04-26 18:57 | 42.02883 | -83.37363 | 37214 ft | 476 kts | 92° |
| 2026-04-26 18:57 | 42.02144 | -83.27071 | 37213 ft | 476 kts | 92° |
| 2026-04-26 18:58 | 42.01499 | -83.18195 | 37210 ft | 476 kts | 92° |
| 2026-04-26 18:58 | 42.00848 | -83.09338 | 37212 ft | 476 kts | 92° |
| 2026-04-26 18:59 | 42.00191 | -83.00485 | 37210 ft | 475 kts | 93° |
| 2026-04-26 18:59 | 41.99527 | -82.91635 | 37210 ft | 475 kts | 93° |
| 2026-04-26 19:00 | 41.98862 | -82.82866 | 37210 ft | 474 kts | 93° |
| 2026-04-26 19:00 | 41.98188 | -82.74063 | 37209 ft | 473 kts | 93° |
| 2026-04-26 19:01 | 41.97507 | -82.65265 | 37209 ft | 473 kts | 93° |
| 2026-04-26 19:01 | 41.96821 | -82.56479 | 37213 ft | 472 kts | 93° |
| 2026-04-26 19:02 | 41.96129 | -82.47709 | 37215 ft | 472 kts | 93° |
| 2026-04-26 19:02 | 41.95549 | -82.40431 | 37220 ft | 472 kts | 93° |
| 2026-04-26 19:03 | 41.94725 | -82.30188 | 37226 ft | 472 kts | 93° |
| 2026-04-26 19:03 | 41.94014 | -82.21431 | 37214 ft | 472 kts | 93° |
| 2026-04-26 19:04 | 41.93295 | -82.12670 | 37217 ft | 472 kts | 93° |
| 2026-04-26 19:04 | 41.92570 | -82.03906 | 37229 ft | 472 kts | 93° |
| 2026-04-26 19:05 | 41.91467 | -81.90751 | 37214 ft | 473 kts | 93° |
| 2026-04-26 19:06 | 41.90722 | -81.81963 | 37222 ft | 473 kts | 94° |
| 2026-04-26 19:06 | 41.89976 | -81.73239 | 37220 ft | 474 kts | 94° |
| 2026-04-26 19:07 | 41.89218 | -81.64459 | 37212 ft | 474 kts | 94° |
| 2026-04-26 19:07 | 41.88452 | -81.55664 | 37206 ft | 474 kts | 94° |
| 2026-04-26 19:08 | 41.87680 | -81.46880 | 37205 ft | 473 kts | 94° |
| 2026-04-26 19:08 | 41.86903 | -81.38129 | 37204 ft | 471 kts | 94° |
| 2026-04-26 19:09 | 41.86123 | -81.29401 | 37201 ft | 472 kts | 94° |
| 2026-04-26 19:09 | 41.85334 | -81.20657 | 37203 ft | 473 kts | 94° |
| 2026-04-26 19:10 | 41.84537 | -81.11895 | 37202 ft | 473 kts | 94° |
| 2026-04-26 19:10 | 41.83738 | -81.03187 | 37194 ft | 474 kts | 94° |
| 2026-04-26 19:11 | 41.82926 | -80.94420 | 37189 ft | 474 kts | 94° |
| 2026-04-26 19:11 | 41.82108 | -80.85665 | 37187 ft | 472 kts | 94° |
| 2026-04-26 19:12 | 41.81288 | -80.76959 | 37180 ft | 469 kts | 94° |
| 2026-04-26 19:12 | 41.80604 | -80.69746 | 37185 ft | 468 kts | 94° |
| 2026-04-26 19:13 | 41.79779 | -80.61114 | 37182 ft | 467 kts | 94° |
| 2026-04-26 19:13 | 41.78949 | -80.52497 | 37187 ft | 466 kts | 94° |
| 2026-04-26 19:14 | 41.78111 | -80.43859 | 37185 ft | 467 kts | 94° |
| 2026-04-26 19:14 | 41.77266 | -80.35225 | 37183 ft | 468 kts | 94° |
| 2026-04-26 19:15 | 41.76417 | -80.26620 | 37176 ft | 470 kts | 94° |
| 2026-04-26 19:15 | 41.75553 | -80.17930 | 37180 ft | 471 kts | 95° |
| 2026-04-26 19:16 | 41.74681 | -80.09226 | 37183 ft | 472 kts | 95° |
| 2026-04-26 19:16 | 41.73800 | -80.00502 | 37175 ft | 473 kts | 95° |
| 2026-04-26 19:17 | 41.72911 | -79.91770 | 37183 ft | 474 kts | 95° |
| 2026-04-26 19:17 | 41.72014 | -79.83033 | 37177 ft | 474 kts | 95° |
| 2026-04-26 19:18 | 41.71112 | -79.74301 | 37182 ft | 473 kts | 95° |
| 2026-04-26 19:18 | 41.70202 | -79.65569 | 37184 ft | 473 kts | 95° |
| 2026-04-26 19:19 | 41.69289 | -79.56870 | 37182 ft | 472 kts | 95° |
| 2026-04-26 19:19 | 41.68372 | -79.48194 | 37184 ft | 470 kts | 95° |
| 2026-04-26 19:20 | 41.67456 | -79.39589 | 37190 ft | 469 kts | 95° |
| 2026-04-26 19:20 | 41.66677 | -79.32322 | 37054 ft | 471 kts | 95° |
| 2026-04-26 19:20 | 41.66210 | -79.27979 | 36891 ft | 471 kts | 95° |
| 2026-04-26 19:21 | 41.65741 | -79.23648 | 36728 ft | 469 kts | 95° |
| 2026-04-26 19:21 | 41.65272 | -79.19323 | 36394 ft | 472 kts | 96° |
| 2026-04-26 19:21 | 41.64798 | -79.14974 | 36008 ft | 473 kts | 96° |
| 2026-04-26 19:21 | 41.64323 | -79.10620 | 35640 ft | 474 kts | 96° |
| 2026-04-26 19:22 | 41.63844 | -79.06254 | 35282 ft | 474 kts | 96° |
| 2026-04-26 19:22 | 41.62886 | -78.97584 | 35202 ft | 471 kts | 95° |
| 2026-04-26 19:23 | 41.61923 | -78.88907 | 35200 ft | 473 kts | 96° |
| 2026-04-26 19:23 | 41.60949 | -78.80193 | 35199 ft | 475 kts | 96° |
| 2026-04-26 19:24 | 41.59964 | -78.71450 | 35190 ft | 476 kts | 96° |
| 2026-04-26 19:24 | 41.58479 | -78.58379 | 35193 ft | 477 kts | 96° |
| 2026-04-26 19:25 | 41.57645 | -78.51101 | 35198 ft | 476 kts | 96° |
| 2026-04-26 19:25 | 41.56465 | -78.40868 | 35048 ft | 477 kts | 96° |
| 2026-04-26 19:26 | 41.55956 | -78.36483 | 34796 ft | 475 kts | 96° |
| 2026-04-26 19:26 | 41.55448 | -78.32122 | 34556 ft | 475 kts | 96° |
| 2026-04-26 19:26 | 41.54939 | -78.27755 | 34326 ft | 476 kts | 96° |
| 2026-04-26 19:26 | 41.54427 | -78.23384 | 34072 ft | 478 kts | 96° |
| 2026-04-26 19:27 | 41.53918 | -78.19056 | 33806 ft | 478 kts | 96° |
| 2026-04-26 19:27 | 41.53400 | -78.14658 | 33536 ft | 479 kts | 96° |
| 2026-04-26 19:27 | 41.52880 | -78.10266 | 33282 ft | 479 kts | 96° |
| 2026-04-26 19:27 | 41.52358 | -78.05871 | 33209 ft | 479 kts | 96° |
| 2026-04-26 19:28 | 41.51313 | -77.97108 | 33197 ft | 478 kts | 96° |
| 2026-04-26 19:28 | 41.50140 | -77.88366 | 33205 ft | 480 kts | 97° |
| 2026-04-26 19:29 | 41.48871 | -77.79631 | 33189 ft | 480 kts | 98° |
| 2026-04-26 19:29 | 41.47603 | -77.70896 | 33204 ft | 480 kts | 97° |
| 2026-04-26 19:30 | 41.46343 | -77.62136 | 33198 ft | 481 kts | 97° |
| 2026-04-26 19:30 | 41.45296 | -77.54858 | 33193 ft | 481 kts | 97° |
| 2026-04-26 19:31 | 41.43815 | -77.44609 | 33184 ft | 482 kts | 97° |
| 2026-04-26 19:31 | 41.42536 | -77.35836 | 33192 ft | 482 kts | 97° |
| 2026-04-26 19:32 | 41.41252 | -77.27069 | 33189 ft | 482 kts | 97° |
| 2026-04-26 19:32 | 41.39962 | -77.18315 | 33193 ft | 482 kts | 97° |
| 2026-04-26 19:33 | 41.38673 | -77.09612 | 33183 ft | 482 kts | 97° |
| 2026-04-26 19:33 | 41.37372 | -77.00870 | 33184 ft | 482 kts | 97° |
| 2026-04-26 19:34 | 41.36062 | -76.92123 | 33141 ft | 482 kts | 97° |
| 2026-04-26 19:34 | 41.35402 | -76.87724 | 32615 ft | 486 kts | 97° |
| 2026-04-26 19:34 | 41.34740 | -76.83334 | 32160 ft | 483 kts | 98° |
| 2026-04-26 19:35 | 41.34079 | -76.78962 | 31699 ft | 482 kts | 98° |
| 2026-04-26 19:35 | 41.33290 | -76.74601 | 31236 ft | 487 kts | 103° |
| 2026-04-26 19:35 | 41.32221 | -76.70310 | 30803 ft | 490 kts | 107° |
| 2026-04-26 19:35 | 41.31022 | -76.66057 | 30369 ft | 491 kts | 108° |
| 2026-04-26 19:36 | 41.29793 | -76.61817 | 29875 ft | 493 kts | 108° |
| 2026-04-26 19:36 | 41.28982 | -76.58988 | 29541 ft | 493 kts | 108° |
| 2026-04-26 19:36 | 41.27385 | -76.53275 | 28878 ft | 493 kts | 107° |
| 2026-04-26 19:36 | 41.26217 | -76.48989 | 28383 ft | 493 kts | 107° |
| 2026-04-26 19:37 | 41.25060 | -76.44688 | 27908 ft | 494 kts | 107° |
| 2026-04-26 19:37 | 41.23920 | -76.40438 | 27449 ft | 495 kts | 107° |
| 2026-04-26 19:37 | 41.22760 | -76.36124 | 26981 ft | 495 kts | 107° |
| 2026-04-26 19:37 | 41.21598 | -76.31817 | 26528 ft | 495 kts | 107° |
| 2026-04-26 19:38 | 41.20436 | -76.27529 | 26066 ft | 487 kts | 107° |
| 2026-04-26 19:38 | 41.19297 | -76.23338 | 25625 ft | 479 kts | 107° |
| 2026-04-26 19:38 | 41.18174 | -76.19212 | 25185 ft | 472 kts | 106° |
| 2026-04-26 19:38 | 41.17061 | -76.15125 | 24763 ft | 470 kts | 106° |
| 2026-04-26 19:39 | 41.15950 | -76.11051 | 24345 ft | 468 kts | 106° |
| 2026-04-26 19:39 | 41.14843 | -76.06999 | 23922 ft | 466 kts | 107° |
| 2026-04-26 19:39 | 41.13738 | -76.02964 | 23465 ft | 464 kts | 106° |
| 2026-04-26 19:39 | 41.12637 | -75.98956 | 22975 ft | 462 kts | 106° |
| 2026-04-26 19:40 | 41.11537 | -75.94962 | 22498 ft | 459 kts | 106° |
| 2026-04-26 19:40 | 41.10444 | -75.90994 | 22021 ft | 456 kts | 106° |
| 2026-04-26 19:40 | 41.09357 | -75.87051 | 21556 ft | 453 kts | 106° |
| 2026-04-26 19:40 | 41.08293 | -75.83201 | 21111 ft | 450 kts | 106° |
| 2026-04-26 19:41 | 41.07221 | -75.79324 | 20652 ft | 446 kts | 106° |
| 2026-04-26 19:41 | 41.06158 | -75.75483 | 20207 ft | 442 kts | 106° |
| 2026-04-26 19:41 | 41.05103 | -75.71679 | 19761 ft | 437 kts | 106° |
| 2026-04-26 19:41 | 41.04397 | -75.69135 | 19476 ft | 434 kts | 106° |
| 2026-04-26 19:42 | 41.03028 | -75.64208 | 18887 ft | 426 kts | 106° |
| 2026-04-26 19:42 | 41.02009 | -75.60549 | 18468 ft | 419 kts | 106° |
| 2026-04-26 19:42 | 41.01006 | -75.56954 | 18000 ft | 413 kts | 106° |
| 2026-04-26 19:42 | 41.00017 | -75.53416 | 17514 ft | 407 kts | 106° |
| 2026-04-26 19:43 | 40.99038 | -75.49920 | 17051 ft | 402 kts | 106° |
| 2026-04-26 19:43 | 40.98070 | -75.46461 | 16587 ft | 398 kts | 106° |
| 2026-04-26 19:43 | 40.97114 | -75.43052 | 16144 ft | 393 kts | 106° |
| 2026-04-26 19:43 | 40.96167 | -75.39675 | 15688 ft | 389 kts | 107° |
| 2026-04-26 19:44 | 40.95241 | -75.36378 | 15256 ft | 385 kts | 107° |
| 2026-04-26 19:44 | 40.94310 | -75.33069 | 14820 ft | 382 kts | 107° |
| 2026-04-26 19:44 | 40.93390 | -75.29802 | 14475 ft | 376 kts | 107° |
| 2026-04-26 19:44 | 40.92484 | -75.26589 | 14094 ft | 370 kts | 107° |
| 2026-04-26 19:45 | 40.91592 | -75.23428 | 13629 ft | 362 kts | 107° |
| 2026-04-26 19:45 | 40.90718 | -75.20337 | 13151 ft | 356 kts | 107° |
| 2026-04-26 19:45 | 40.89861 | -75.17302 | 12689 ft | 350 kts | 107° |
| 2026-04-26 19:45 | 40.89011 | -75.14305 | 12231 ft | 345 kts | 107° |
| 2026-04-26 19:46 | 40.88176 | -75.11362 | 11780 ft | 340 kts | 107° |
| 2026-04-26 19:46 | 40.87348 | -75.08433 | 11345 ft | 340 kts | 107° |
| 2026-04-26 19:46 | 40.86524 | -75.05510 | 10918 ft | 339 kts | 107° |
| 2026-04-26 19:46 | 40.85700 | -75.02588 | 10477 ft | 339 kts | 107° |
| 2026-04-26 19:47 | 40.84883 | -74.99695 | 10045 ft | 332 kts | 107° |
| 2026-04-26 19:47 | 40.84354 | -74.97830 | 9822 ft | 322 kts | 107° |
| 2026-04-26 19:47 | 40.83330 | -74.94226 | 9399 ft | 305 kts | 107° |
| 2026-04-26 19:47 | 40.82587 | -74.91654 | 9063 ft | 295 kts | 111° |
| 2026-04-26 19:48 | 40.81628 | -74.89297 | 8743 ft | 288 kts | 118° |
| 2026-04-26 19:48 | 40.80554 | -74.87086 | 8458 ft | 286 kts | 120° |
| 2026-04-26 19:48 | 40.79454 | -74.84890 | 8174 ft | 288 kts | 121° |
| 2026-04-26 19:48 | 40.78344 | -74.82670 | 7871 ft | 290 kts | 120° |
| 2026-04-26 19:49 | 40.77243 | -74.80447 | 7550 ft | 288 kts | 120° |
| 2026-04-26 19:49 | 40.76163 | -74.78254 | 7263 ft | 282 kts | 120° |
| 2026-04-26 19:49 | 40.75111 | -74.76102 | 6958 ft | 276 kts | 120° |
| 2026-04-26 19:49 | 40.74102 | -74.74029 | 6679 ft | 268 kts | 120° |
| 2026-04-26 19:50 | 40.73095 | -74.72014 | 6439 ft | 260 kts | 122° |
| 2026-04-26 19:50 | 40.72057 | -74.70091 | 6161 ft | 255 kts | 122° |
| 2026-04-26 19:50 | 40.71025 | -74.68209 | 5891 ft | 251 kts | 123° |
| 2026-04-26 19:50 | 40.69991 | -74.66339 | 5646 ft | 254 kts | 124° |
| 2026-04-26 19:51 | 40.68632 | -74.64807 | 5354 ft | 264 kts | 152° |
| 2026-04-26 19:51 | 40.66842 | -74.64305 | 5102 ft | 266 kts | 180° |
| 2026-04-26 19:51 | 40.65011 | -74.64577 | 5053 ft | 264 kts | 187° |
| 2026-04-26 19:51 | 40.63197 | -74.64999 | 4983 ft | 266 kts | 193° |
| 2026-04-26 19:52 | 40.61454 | -74.65717 | 4976 ft | 259 kts | 197° |
| 2026-04-26 19:52 | 40.59769 | -74.66470 | 4827 ft | 253 kts | 197° |
| 2026-04-26 19:52 | 40.58114 | -74.67218 | 4618 ft | 251 kts | 198° |
| 2026-04-26 19:52 | 40.56451 | -74.67844 | 4367 ft | 246 kts | 189° |
| 2026-04-26 19:53 | 40.54777 | -74.68245 | 4136 ft | 241 kts | 188° |
| 2026-04-26 19:53 | 40.53125 | -74.68619 | 3896 ft | 241 kts | 188° |
| 2026-04-26 19:53 | 40.51495 | -74.68982 | 3666 ft | 239 kts | 188° |
| 2026-04-26 19:53 | 40.49874 | -74.69279 | 3548 ft | 233 kts | 177° |
| 2026-04-26 19:54 | 40.48361 | -74.68708 | 3391 ft | 226 kts | 143° |
| 2026-04-26 19:54 | 40.47354 | -74.67201 | 3313 ft | 220 kts | 115° |
| 2026-04-26 19:54 | 40.46666 | -74.65403 | 3222 ft | 219 kts | 113° |
| 2026-04-26 19:54 | 40.46001 | -74.63620 | 3100 ft | 216 kts | 113° |
| 2026-04-26 19:55 | 40.45362 | -74.61852 | 2991 ft | 212 kts | 107° |
| 2026-04-26 19:55 | 40.45339 | -74.59992 | 2997 ft | 203 kts | 73° |
| 2026-04-26 19:55 | 40.45729 | -74.58199 | 2984 ft | 206 kts | 72° |
| 2026-04-26 19:55 | 40.46115 | -74.56384 | 2994 ft | 206 kts | 72° |
| 2026-04-26 19:56 | 40.46491 | -74.54555 | 2995 ft | 208 kts | 73° |
| 2026-04-26 19:56 | 40.46856 | -74.52729 | 2981 ft | 205 kts | 74° |
| 2026-04-26 19:56 | 40.47210 | -74.50925 | 2979 ft | 202 kts | 73° |
| 2026-04-26 19:56 | 40.47562 | -74.49107 | 2993 ft | 211 kts | 74° |
| 2026-04-26 19:57 | 40.47925 | -74.47212 | 2965 ft | 216 kts | 75° |
| 2026-04-26 19:57 | 40.48287 | -74.45302 | 2870 ft | 221 kts | 74° |
| 2026-04-26 19:57 | 40.48653 | -74.43357 | 2801 ft | 216 kts | 74° |
| 2026-04-26 19:57 | 40.49006 | -74.41475 | 2802 ft | 209 kts | 74° |
| 2026-04-26 19:58 | 40.49348 | -74.39648 | 2799 ft | 202 kts | 74° |
| 2026-04-26 19:58 | 40.49677 | -74.37874 | 2802 ft | 197 kts | 74° |
| 2026-04-26 19:58 | 40.50002 | -74.36124 | 2791 ft | 196 kts | 74° |
| 2026-04-26 19:58 | 40.50319 | -74.34408 | 2790 ft | 192 kts | 74° |
| 2026-04-26 19:59 | 40.50634 | -74.32705 | 2803 ft | 192 kts | 74° |
| 2026-04-26 19:59 | 40.50949 | -74.31003 | 2788 ft | 189 kts | 74° |
| 2026-04-26 19:59 | 40.51253 | -74.29355 | 2785 ft | 182 kts | 74° |
| 2026-04-26 19:59 | 40.51811 | -74.27934 | 2768 ft | 175 kts | 38° |
| 2026-04-26 20:00 | 40.52492 | -74.27407 | 2832 ft | 171 kts | 29° |
| 2026-04-26 20:00 | 40.53532 | -74.26609 | 2831 ft | 174 kts | 31° |
| 2026-04-26 20:00 | 40.54607 | -74.25848 | 2803 ft | 175 kts | 28° |
| 2026-04-26 20:00 | 40.55706 | -74.25127 | 2701 ft | 179 kts | 27° |
| 2026-04-26 20:01 | 40.56835 | -74.24404 | 2482 ft | 179 kts | 27° |
| 2026-04-26 20:01 | 40.57932 | -74.23702 | 2243 ft | 170 kts | 27° |
| 2026-04-26 20:01 | 40.58954 | -74.23050 | 2034 ft | 157 kts | 27° |
| 2026-04-26 20:01 | 40.59881 | -74.22458 | 1836 ft | 141 kts | 27° |
| 2026-04-26 20:02 | 40.60745 | -74.21906 | 1648 ft | 138 kts | 27° |
| 2026-04-26 20:02 | 40.61614 | -74.21352 | 1475 ft | 139 kts | 28° |
| 2026-04-26 20:02 | 40.62475 | -74.20800 | 1283 ft | 139 kts | 28° |
| 2026-04-26 20:02 | 40.63072 | -74.20418 | 1161 ft | 141 kts | 27° |
| 2026-04-26 20:03 | 40.64237 | -74.19674 | 871 ft | 139 kts | 30° |
| 2026-04-26 20:03 | 40.65094 | -74.19128 | 711 ft | 136 kts | 30° |
| 2026-04-26 20:03 | 40.65949 | -74.18568 | 522 ft | 140 kts | 30° |
| 2026-04-26 20:03 | 40.66838 | -74.18013 | 345 ft | 141 kts | 29° |
| 2026-04-26 20:04 | 40.67709 | -74.17457 | 133 ft | 138 kts | 28° |
| 2026-04-26 20:04 | 40.68547 | -74.16924 | 19 ft | 126 kts | 25° |
| 2026-04-26 20:04 | 40.69179 | -74.16527 | 25 ft | 58 kts | 25° |
| 2026-04-26 20:04 | 40.69356 | -74.16449 | 27 ft | 9 kts | 358° |
| 2026-04-26 20:05 | 40.69420 | -74.16453 | 27 ft | 9 kts | 356° |
| 2026-04-26 20:05 | 40.69487 | -74.16460 | 24 ft | 11 kts | 355° |
| 2026-04-26 20:05 | 40.69568 | -74.16469 | 19 ft | 12 kts | 353° |
| 2026-04-26 20:05 | 40.69620 | -74.16549 | 19 ft | 12 kts | 295° |
| 2026-04-26 20:06 | 40.69656 | -74.16647 | 19 ft | 12 kts | 296° |
| 2026-04-26 20:06 | 40.69684 | -74.16737 | 18 ft | 11 kts | 277° |
| 2026-04-26 20:06 | 40.69666 | -74.16829 | 18 ft | 10 kts | 251° |
| 2026-04-26 20:06 | 40.69625 | -74.16900 | 17 ft | 10 kts | 209° |
| 2026-04-26 20:07 | 40.69563 | -74.16939 | 18 ft | 10 kts | 205° |
| 2026-04-26 20:07 | 40.69502 | -74.16978 | 19 ft | 10 kts | 206° |
| 2026-04-26 20:07 | 40.69458 | -74.17006 | 19 ft | 5 kts | 206° |
| 2026-04-26 20:07 | 40.69422 | -74.17029 | 18 ft | 6 kts | 206° |
| 2026-04-26 20:08 | 40.69384 | -74.17071 | 17 ft | 8 kts | 231° |
| 2026-04-26 20:08 | 40.69376 | -74.17105 | 16 ft | 3 kts | 276° |
| 2026-04-26 20:08 | 40.69380 | -74.17141 | 15 ft | 5 kts | 283° |
| 2026-04-26 20:08 | 40.69385 | -74.17169 | 17 ft | 0 kts | 283° |
| 2026-04-26 20:09 | 40.69386 | -74.17170 | 17 ft | 0 kts | 283° |